Terminal Aerodrome Forecast
Issued by NWS

Home | Current Version | Previous Version | Text Only | Print | Product List | Glossary On
Versions: 1 2 3 4 5 6 7 8 9 10 11 12 13 14 15 16 17 18
788
FTUS41 KPBZ 100520
TAFDUJ
TAF
KDUJ 100520Z 1006/1106 24012KT 4SM -SHSN OVC012
     FM100700 24012KT 6SM -SHSN OVC012
     FM101700 26012G19KT 5SM -SHSN OVC012
     FM102300 29010G19KT 1 1/2SM -SHSN OVC007=

USA.gov is the U.S. government's official web portal to all federal, state and local government web resources and services.